TX85 weather

City of Fort Worth Heliport
Fort Worth, Texas, United States

Public forecast

Using degrees Fahrenheit for public forecast. Weather courtesy of forecast.io.

Closest aviation weather report (METAR) to City of Fort Worth Heliport

Closest report is Fort Worth Meacham International Airport, 3.1 nm (5.8 km) NW. Retrieved 2020/08/08 08:53 UTC (11 minutes ago):

KFTW 080853Z 18011KT 10SM CLR 28/21 A3002 RMK AO2 SLP155 T02780206 53003

Closest aviation forecast (TAF) to City of Fort Worth Heliport

Closest forecast is Fort Worth Meacham International Airport, 3.1 nm (5.8 km) NW. Retrieved 2020/08/08 06:22 UTC (3 hours ago):

TAF KFTW 080520Z 0806/0906 17011KT P6SM FEW250